No particular awareness of the weather is required.    There are no Weather-warnings


Meteo18 Weather Cam more information Meteo18 Weather Cam


Thunder radar more information blitzortung!


Rain radar more information rain snow radar


Visit our other weather sites:

Template documentation
and downloads

And another site



Weather Underground History page Text

Daily Summary for August 4, 2017 Units:  English    Metric   Both
« Previous Day
Next Day »
Daily Weekly Monthly Yearly Custom
  High: Low: Average:
Temperature: TemperatureC °F 15.6 °F 20.6 °F
Dew Point: DewpointC °F 13.6 °F 15 °F
Humidity: Humidity % 51 % 71 %
Wind Speed: WindSpeedKMH mph 0.0 mph 5.7 mph
Wind Gust: WindSpeedGustKMH mph - -
Wind:- - SW
Pressure: PressurehPa in 1017.2 in -
Precipitation: 0.0 in    
Historical Graphs
 
 
Tabular Data for August 4, 2017
Time Temperature Dew Point Pressure Wind Wind Speed Wind Gust Humidity Rainfall Rate (Hourly)
TemperatureC °F DewpointC °F PressurehPa in Calm     Humidity % HourlyPrecipMM in
00:02 19.6 °F 16.2 °F 1017.8 in SW 6.4 mph 9.7 mph 81 % 0.0 in
00:07 19.5 °F 16.2 °F 1017.8 in SW 11.3 mph 11.3 mph 81 % 0.0 in
00:12 19.4 °F 16.2 °F 1017.8 in WSW 8.0 mph 11.3 mph 82 % 0.0 in
00:17 19.3 °F 16.1 °F 1017.8 in SW 4.8 mph 12.9 mph 82 % 0.0 in
00:22 19.2 °F 16.2 °F 1017.5 in SSW 9.7 mph 12.9 mph 83 % 0.0 in
00:32 19.0 °F 16.2 °F 1017.8 in SW 4.8 mph 11.3 mph 84 % 0.0 in
00:37 18.9 °F 16.1 °F 1017.8 in WSW 6.4 mph 11.3 mph 84 % 0.0 in
00:42 19.0 °F 16.2 °F 1017.5 in SW 9.7 mph 11.3 mph 84 % 0.0 in
00:47 18.9 °F 16.1 °F 1017.8 in WSW 14.5 mph 14.5 mph 84 % 0.0 in
00:52 19.0 °F 16.2 °F 1017.8 in WSW 6.4 mph 14.5 mph 84 % 0.0 in
00:57 19.1 °F 16.3 °F 1017.8 in WSW 6.4 mph 14.5 mph 84 % 0.0 in
01:02 19.1 °F 16.3 °F 1017.8 in WSW 4.8 mph 14.5 mph 84 % 0.0 in
01:07 19.1 °F 16.3 °F 1017.8 in SW 3.2 mph 12.9 mph 84 % 0.0 in
01:12 19.1 °F 16.3 °F 1017.8 in WSW 3.2 mph 12.9 mph 84 % 0.0 in
01:17 19.1 °F 16.3 °F 1017.8 in WSW 4.8 mph 12.9 mph 84 % 0.0 in
01:22 19.0 °F 16.2 °F 1017.8 in SSW 3.2 mph 12.9 mph 84 % 0.0 in
01:27 19.0 °F 16.2 °F 1017.8 in WSW 6.4 mph 11.3 mph 84 % 0.0 in
01:32 18.9 °F 16.3 °F 1017.8 in SW 9.7 mph 9.7 mph 85 % 0.0 in
01:37 18.9 °F 16.1 °F 1017.8 in WSW 3.2 mph 11.3 mph 84 % 0.0 in
01:42 18.8 °F 16.0 °F 1017.8 in SW 6.4 mph 12.9 mph 84 % 0.0 in
01:47 18.9 °F 15.9 °F 1017.5 in SW 4.8 mph 12.9 mph 83 % 0.0 in
01:52 18.9 °F 15.8 °F 1017.5 in SW 11.3 mph 12.9 mph 82 % 0.0 in
02:02 18.9 °F 15.4 °F 1017.5 in SW 1.6 mph 12.9 mph 80 % 0.0 in
02:07 18.8 °F 15.7 °F 1017.5 in SW 9.7 mph 12.9 mph 82 % 0.0 in
02:12 18.8 °F 15.9 °F 1017.5 in WSW 8.0 mph 11.3 mph 83 % 0.0 in
02:17 18.7 °F 15.8 °F 1017.5 in SSW 1.6 mph 12.9 mph 83 % 0.0 in
02:22 18.6 °F 15.3 °F 1017.5 in West 3.2 mph 17.7 mph 81 % 0.0 in
02:27 18.7 °F 15.0 °F 1017.5 in West 11.3 mph 17.7 mph 79 % 0.0 in
02:32 18.7 °F 14.8 °F 1017.5 in WSW 8.0 mph 20.9 mph 78 % 0.0 in
02:37 18.7 °F 14.8 °F 1017.5 in WSW 11.3 mph 20.9 mph 78 % 0.0 in
02:42 18.7 °F 14.8 °F 1017.5 in WSW 9.7 mph 16.1 mph 78 % 0.0 in
02:47 18.5 °F 14.6 °F 1017.5 in WSW 9.7 mph 16.1 mph 78 % 0.0 in
02:52 18.4 °F 14.5 °F 1017.5 in WSW 4.8 mph 16.1 mph 78 % 0.0 in
02:57 18.3 °F 14.6 °F 1017.5 in WSW 1.6 mph 11.3 mph 79 % 0.0 in
03:02 18.1 °F 14.4 °F 1017.5 in SW 3.2 mph 11.3 mph 79 % 0.0 in
03:07 18.0 °F 14.5 °F 1017.5 in West 1.6 mph 9.7 mph 80 % 0.0 in
03:12 17.8 °F 14.3 °F 1017.5 in WSW 3.2 mph 9.7 mph 80 % 0.0 in
03:17 17.7 °F 14.4 °F 1017.8 in SW 1.6 mph 8.0 mph 81 % 0.0 in
03:22 17.6 °F 14.3 °F 1017.5 in Calm   8.0 mph 81 % 0.0 in
03:27 17.6 °F 14.3 °F 1017.5 in WSW 3.2 mph 6.4 mph 81 % 0.0 in
03:32 17.5 °F 14.2 °F 1017.8 in SW 4.8 mph 6.4 mph 81 % 0.0 in
03:37 17.4 °F 14.1 °F 1017.8 in WSW 3.2 mph 8.0 mph 81 % 0.0 in
03:42 17.4 °F 14.1 °F 1017.8 in WSW 6.4 mph 8.0 mph 81 % 0.0 in
03:47 17.3 °F 14.0 °F 1017.8 in SW 4.8 mph 8.0 mph 81 % 0.0 in
03:57 17.2 °F 14.1 °F 1017.8 in SW 3.2 mph 8.0 mph 82 % 0.0 in
04:02 17.1 °F 14.0 °F 1017.8 in SW 3.2 mph 9.7 mph 82 % 0.0 in
04:12 16.9 °F 14.0 °F 1017.8 in SW 4.8 mph 9.7 mph 83 % 0.0 in
04:17 16.9 °F 14.0 °F 1017.8 in SW 3.2 mph 8.0 mph 83 % 0.0 in
04:22 16.8 °F 13.9 °F 1017.8 in SW 3.2 mph 8.0 mph 83 % 0.0 in
04:27 16.7 °F 13.8 °F 1017.8 in WSW 6.4 mph 8.0 mph 83 % 0.0 in
04:32 16.7 °F 13.8 °F 1017.8 in SW 3.2 mph 8.0 mph 83 % 0.0 in
04:37 16.7 °F 13.8 °F 1017.8 in SW 3.2 mph 8.0 mph 83 % 0.0 in
04:42 16.6 °F 13.9 °F 1017.8 in SW 4.8 mph 6.4 mph 84 % 0.0 in
04:47 16.5 °F 13.8 °F 1017.8 in SW 6.4 mph 6.4 mph 84 % 0.0 in
04:52 16.4 °F 13.7 °F 1017.8 in SSW 1.6 mph 9.7 mph 84 % 0.0 in
05:02 16.2 °F 13.7 °F 1017.8 in South 1.6 mph 9.7 mph 85 % 0.0 in
05:17 15.9 °F 13.6 °F 1017.8 in Calm   6.4 mph 86 % 0.0 in
05:27 15.7 °F 13.7 °F 1017.8 in SSW 1.6 mph 4.8 mph 88 % 0.0 in
05:32 15.7 °F 13.7 °F 1017.8 in SSW 3.2 mph 6.4 mph 88 % 0.0 in
05:37 15.6 °F 13.6 °F 1017.8 in SSW 4.8 mph 6.4 mph 88 % 0.0 in
05:42 15.6 °F 13.6 °F 1017.8 in SSW 3.2 mph 6.4 mph 88 % 0.0 in
05:52 15.6 °F 13.6 °F 1017.8 in SW 3.2 mph 6.4 mph 88 % 0.0 in
05:57 15.6 °F 13.6 °F 1017.8 in SSW 3.2 mph 6.4 mph 88 % 0.0 in
06:02 15.6 °F 13.6 °F 1017.8 in SSW 1.6 mph 6.4 mph 88 % 0.0 in
06:07 15.6 °F 13.6 °F 1018.2 in SW 4.8 mph 6.4 mph 88 % 0.0 in
06:12 15.7 °F 13.7 °F 1018.2 in SW 3.2 mph 8.0 mph 88 % 0.0 in
06:17 15.8 °F 13.6 °F 1018.2 in WSW 9.7 mph 9.7 mph 87 % 0.0 in
06:22 15.9 °F 13.6 °F 1018.2 in WSW 4.8 mph 11.3 mph 86 % 0.0 in
06:27 15.9 °F 13.6 °F 1018.2 in SW 4.8 mph 11.3 mph 86 % 0.0 in
06:32 15.9 °F 13.6 °F 1018.2 in WSW 6.4 mph 11.3 mph 86 % 0.0 in
06:37 16.0 °F 13.7 °F 1018.2 in SW 3.2 mph 8.0 mph 86 % 0.0 in
06:42 15.9 °F 13.6 °F 1018.2 in SW 3.2 mph 8.0 mph 86 % 0.0 in
06:47 15.9 °F 13.7 °F 1018.2 in SW 4.8 mph 9.7 mph 87 % 0.0 in
06:52 15.8 °F 13.6 °F 1018.2 in SSW 4.8 mph 9.7 mph 87 % 0.0 in
07:02 15.8 °F 13.8 °F 1018.2 in SSW 3.2 mph 6.4 mph 88 % 0.0 in
07:07 15.7 °F 13.9 °F 1018.2 in SW 3.2 mph 6.4 mph 89 % 0.0 in
07:12 15.7 °F 13.9 °F 1018.2 in Calm   6.4 mph 89 % 0.0 in
07:17 15.7 °F 13.9 °F 1018.2 in Calm   4.8 mph 89 % 0.0 in
07:22 15.7 °F 13.9 °F 1018.2 in Calm   3.2 mph 89 % 0.0 in
07:32 15.8 °F 14.0 °F 1018.2 in Calm   4.8 mph 89 % 0.0 in
07:37 15.9 °F 14.3 °F 1018.2 in SSW 1.6 mph 4.8 mph 90 % 0.0 in
07:42 15.9 °F 14.3 °F 1018.2 in SSW 1.6 mph 4.8 mph 90 % 0.0 in
07:47 16.0 °F 14.2 °F 1018.5 in SW 3.2 mph 4.8 mph 89 % 0.0 in
07:52 16.1 °F 14.3 °F 1018.5 in SSW 1.6 mph 8.0 mph 89 % 0.0 in
08:02 16.3 °F 14.3 °F 1018.5 in South 3.2 mph 8.0 mph 88 % 0.0 in
08:12 16.6 °F 14.4 °F 1018.5 in SW 6.4 mph 9.7 mph 87 % 0.0 in
08:17 16.6 °F 14.4 °F 1018.5 in SW 9.7 mph 11.3 mph 87 % 0.0 in
08:22 16.6 °F 14.2 °F 1018.5 in SSW 8.0 mph 14.5 mph 86 % 0.0 in
08:32 16.7 °F 14.5 °F 1018.5 in SW 6.4 mph 14.5 mph 87 % 0.0 in
08:37 16.7 °F 14.3 °F 1018.5 in SSW 3.2 mph 14.5 mph 86 % 0.0 in
08:42 16.8 °F 14.4 °F 1018.5 in SSW 6.4 mph 14.5 mph 86 % 0.0 in
08:47 16.8 °F 14.4 °F 1018.5 in SSW 9.7 mph 16.1 mph 86 % 0.0 in
08:52 16.9 °F 14.5 °F 1018.5 in SW 9.7 mph 17.7 mph 86 % 0.0 in
08:57 17.2 °F 14.8 °F 1018.5 in WSW 9.7 mph 17.7 mph 86 % 0.0 in
09:02 17.3 °F 14.8 °F 1018.5 in SW 8.0 mph 17.7 mph 85 % 0.0 in
09:07 17.3 °F 14.8 °F 1018.5 in SW 4.8 mph 12.9 mph 85 % 0.0 in
09:12 17.4 °F 14.9 °F 1018.5 in WSW 9.7 mph 12.9 mph 85 % 0.0 in
09:17 17.6 °F 14.9 °F 1018.8 in West 9.7 mph 11.3 mph 84 % 0.0 in
09:22 17.7 °F 15.0 °F 1018.8 in Calm   11.3 mph 84 % 0.0 in
09:32 17.9 °F 15.0 °F 1018.8 in SW 6.4 mph 11.3 mph 83 % 0.0 in
09:37 17.9 °F 14.8 °F 1018.8 in WSW 8.0 mph 12.9 mph 82 % 0.0 in
09:42 17.9 °F 14.8 °F 1018.8 in West 6.4 mph 14.5 mph 82 % 0.0 in
09:47 18.1 °F 14.8 °F 1018.8 in WNW 16.1 mph 16.1 mph 81 % 0.0 in
09:52 18.2 °F 14.7 °F 1018.5 in West 3.2 mph 16.1 mph 80 % 0.0 in
10:02 18.7 °F 14.8 °F 1018.8 in SW 6.4 mph 16.1 mph 78 % 0.0 in
10:07 18.7 °F 14.6 °F 1018.8 in West 1.6 mph 11.3 mph 77 % 0.0 in
10:12 19.0 °F 14.7 °F 1018.8 in WNW 8.0 mph 12.9 mph 76 % 0.0 in
10:17 19.1 °F 14.8 °F 1018.8 in SW 9.7 mph 12.9 mph 76 % 0.0 in
10:22 18.8 °F 14.7 °F 1018.5 in SW 1.6 mph 17.7 mph 77 % 0.0 in
10:27 18.9 °F 14.6 °F 1018.5 in SW 9.7 mph 17.7 mph 76 % 0.0 in
10:32 18.9 °F 14.6 °F 1018.8 in West 8.0 mph 17.7 mph 76 % 0.0 in
10:37 18.9 °F 14.4 °F 1018.8 in SW 8.0 mph 16.1 mph 75 % 0.0 in
10:42 18.8 °F 14.3 °F 1018.8 in SW 8.0 mph 16.1 mph 75 % 0.0 in
10:52 19.3 °F 14.8 °F 1019.2 in SW 6.4 mph 16.1 mph 75 % 0.0 in
10:57 19.6 °F 14.6 °F 1019.2 in SSW 6.4 mph 16.1 mph 73 % 0.0 in
11:02 19.6 °F 14.8 °F 1019.2 in SW 3.2 mph 16.1 mph 74 % 0.0 in
11:07 19.8 °F 14.6 °F 1019.2 in SSW 4.8 mph 16.1 mph 72 % 0.0 in
11:12 19.8 °F 14.4 °F 1019.2 in WSW 12.9 mph 16.1 mph 71 % 0.0 in
11:17 19.7 °F 14.5 °F 1019.2 in SW 12.9 mph 17.7 mph 72 % 0.0 in
11:22 19.7 °F 14.7 °F 1019.2 in SW 6.4 mph 17.7 mph 73 % 0.0 in
11:27 19.8 °F 14.4 °F 1019.2 in WSW 6.4 mph 17.7 mph 71 % 0.0 in
11:32 19.8 °F 14.4 °F 1019.2 in West 8.0 mph 14.5 mph 71 % 0.0 in
11:37 19.8 °F 14.2 °F 1019.2 in SW 6.4 mph 16.1 mph 70 % 0.0 in
11:47 20.0 °F 13.9 °F 1018.8 in SSW 4.8 mph 16.1 mph 68 % 0.0 in
11:52 20.1 °F 14.2 °F 1018.8 in West 8.0 mph 16.1 mph 69 % 0.0 in
11:57 20.5 °F 14.6 °F 1019.2 in SW 8.0 mph 20.9 mph 69 % 0.0 in
12:02 20.6 °F 14.7 °F 1019.2 in South 6.4 mph 20.9 mph 69 % 0.0 in
12:07 20.7 °F 15.3 °F 1019.2 in SW 6.4 mph 20.9 mph 71 % 0.0 in
12:12 20.7 °F 14.1 °F 1019.2 in West 6.4 mph 19.3 mph 66 % 0.0 in
12:17 20.8 °F 14.4 °F 1019.2 in WSW 4.8 mph 19.3 mph 67 % 0.0 in
12:22 21.1 °F 14.7 °F 1018.8 in WSW 11.3 mph 16.1 mph 67 % 0.0 in
12:32 21.0 °F 14.6 °F 1018.8 in West 9.7 mph 17.7 mph 67 % 0.0 in
12:37 21.1 °F 14.3 °F 1018.8 in West 11.3 mph 17.7 mph 65 % 0.0 in
12:42 21.3 °F 14.5 °F 1018.8 in SSW 6.4 mph 17.7 mph 65 % 0.0 in
12:52 21.2 °F 14.4 °F 1018.8 in SW 8.0 mph 22.5 mph 65 % 0.0 in
12:57 21.6 °F 14.5 °F 1018.8 in SW 3.2 mph 22.5 mph 64 % 0.0 in
13:07 21.7 °F 13.8 °F 1018.8 in SW 4.8 mph 19.3 mph 61 % 0.0 in
13:12 21.8 °F 14.4 °F 1018.8 in SE 9.7 mph 19.3 mph 63 % 0.0 in
13:17 21.9 °F 14.5 °F 1018.8 in SW 9.7 mph 19.3 mph 63 % 0.0 in
13:22 22.3 °F 14.4 °F 1018.5 in SSW 6.4 mph 17.7 mph 61 % 0.0 in
13:27 22.1 °F 14.2 °F 1018.5 in WSW 6.4 mph 14.5 mph 61 % 0.0 in
13:32 22.3 °F 13.9 °F 1018.8 in WSW 9.7 mph 19.3 mph 59 % 0.0 in
13:37 22.3 °F 14.2 °F 1018.5 in West 12.9 mph 19.3 mph 60 % 0.0 in
13:42 22.6 °F 14.2 °F 1018.5 in SSE 3.2 mph 19.3 mph 59 % 0.0 in
13:52 22.3 °F 13.6 °F 1018.5 in WSW 9.7 mph 17.7 mph 58 % 0.0 in
13:57 22.4 °F 14.0 °F 1018.5 in WSW 8.0 mph 16.1 mph 59 % 0.0 in
14:02 22.4 °F 13.7 °F 1018.5 in WSW 4.8 mph 17.7 mph 58 % 0.0 in
14:07 22.4 °F 14.3 °F 1018.5 in SW 9.7 mph 19.3 mph 60 % 0.0 in
14:12 22.4 °F 14.0 °F 1018.5 in West 8.0 mph 19.3 mph 59 % 0.0 in
14:17 22.9 °F 14.7 °F 1018.5 in WNW 4.8 mph 17.7 mph 60 % 0.0 in
14:22 23.3 °F 14.6 °F 1018.5 in SW 12.9 mph 17.7 mph 58 % 0.0 in
14:27 23.2 °F 14.5 °F 1018.5 in SW 4.8 mph 19.3 mph 58 % 0.0 in
14:32 23.2 °F 14.2 °F 1018.2 in SW 11.3 mph 20.9 mph 57 % 0.0 in
14:37 23.3 °F 14.3 °F 1018.2 in West 9.7 mph 20.9 mph 57 % 0.0 in
14:42 23.4 °F 14.4 °F 1018.2 in SSW 4.8 mph 20.9 mph 57 % 0.0 in
14:47 23.4 °F 14.7 °F 1018.2 in SSW 11.3 mph 16.1 mph 58 % 0.0 in
14:52 23.3 °F 14.8 °F 1018.2 in SSW 6.4 mph 20.9 mph 59 % 0.0 in
14:57 23.6 °F 15.1 °F 1018.2 in SSW 4.8 mph 20.9 mph 59 % 0.0 in
15:02 23.9 °F 14.9 °F 1018.2 in WNW 9.7 mph 20.9 mph 57 % 0.0 in
15:07 23.8 °F 14.8 °F 1018.2 in WSW 8.0 mph 19.3 mph 57 % 0.0 in
15:12 24.1 °F 14.8 °F 1018.2 in SSW 8.0 mph 19.3 mph 56 % 0.0 in
15:17 23.8 °F 14.5 °F 1018.2 in SW 4.8 mph 20.9 mph 56 % 0.0 in
15:22 23.9 °F 14.3 °F 1018.2 in SW 16.1 mph 20.9 mph 55 % 0.0 in
15:27 23.8 °F 14.2 °F 1018.2 in SSW 8.0 mph 22.5 mph 55 % 0.0 in
15:32 23.9 °F 14.6 °F 1018.2 in Calm   22.5 mph 56 % 0.0 in
15:37 24.2 °F 14.3 °F 1018.2 in WNW 4.8 mph 22.5 mph 54 % 0.0 in
15:42 24.5 °F 15.7 °F 1018.2 in SSW 9.7 mph 20.9 mph 58 % 0.0 in
15:47 24.5 °F 14.9 °F 1017.8 in SW 11.3 mph 20.9 mph 55 % 0.0 in
15:52 24.5 °F 14.9 °F 1018.2 in SW 12.9 mph 17.7 mph 55 % 0.0 in
15:57 24.8 °F 16.0 °F 1018.2 in South 9.7 mph 17.7 mph 58 % 0.0 in
16:02 25.0 °F 15.3 °F 1017.8 in WSW 8.0 mph 17.7 mph 55 % 0.0 in
16:07 25.1 °F 15.1 °F 1017.8 in SW 4.8 mph 19.3 mph 54 % 0.0 in
16:12 25.5 °F 14.9 °F 1017.8 in WSW 8.0 mph 19.3 mph 52 % 0.0 in
16:17 25.6 °F 15.3 °F 1017.8 in West 12.9 mph 19.3 mph 53 % 0.0 in
16:22 25.2 °F 14.6 °F 1017.8 in WNW 8.0 mph 20.9 mph 52 % 0.0 in
16:32 24.8 °F 14.6 °F 1017.8 in WSW 3.2 mph 20.9 mph 53 % 0.0 in
16:42 24.8 °F 14.6 °F 1017.8 in SW 9.7 mph 12.9 mph 53 % 0.0 in
16:47 24.8 °F 14.9 °F 1017.8 in West 4.8 mph 12.9 mph 54 % 0.0 in
16:52 25.1 °F 14.6 °F 1017.8 in WNW 3.2 mph 12.9 mph 52 % 0.0 in
16:57 25.3 °F 14.4 °F 1017.8 in WSW 6.4 mph 17.7 mph 51 % 0.0 in
17:02 25.4 °F 14.8 °F 1017.8 in NW 6.4 mph 17.7 mph 52 % 0.0 in
17:07 25.6 °F 15.3 °F 1017.8 in WSW 9.7 mph 17.7 mph 53 % 0.0 in
17:12 25.5 °F 14.9 °F 1017.8 in SW 9.7 mph 16.1 mph 52 % 0.0 in
17:17 25.4 °F 14.8 °F 1017.8 in SW 4.8 mph 16.1 mph 52 % 0.0 in
17:22 25.4 °F 14.8 °F 1017.5 in SE 3.2 mph 16.1 mph 52 % 0.0 in
17:27 25.5 °F 15.2 °F 1017.5 in WSW 6.4 mph 16.1 mph 53 % 0.0 in
17:32 25.4 °F 14.8 °F 1017.5 in WNW 4.8 mph 9.7 mph 52 % 0.0 in
17:37 25.6 °F 15.0 °F 1017.5 in West 4.8 mph 9.7 mph 52 % 0.0 in
17:42 25.5 °F 15.2 °F 1017.5 in SSW 4.8 mph 11.3 mph 53 % 0.0 in
17:47 25.5 °F 16.1 °F 1017.5 in West 1.6 mph 11.3 mph 56 % 0.0 in
17:52 25.6 °F 15.0 °F 1017.5 in SSW 3.2 mph 11.3 mph 52 % 0.0 in
17:57 25.4 °F 14.8 °F 1017.5 in SW 1.6 mph 16.1 mph 52 % 0.0 in
18:02 25.3 °F 14.7 °F 1017.5 in SW 8.0 mph 16.1 mph 52 % 0.0 in
18:07 25.3 °F 14.7 °F 1017.5 in SSE 6.4 mph 16.1 mph 52 % 0.0 in
18:12 25.4 °F 14.8 °F 1017.5 in SW 3.2 mph 17.7 mph 52 % 0.0 in
18:17 25.4 °F 14.8 °F 1017.5 in SW 6.4 mph 17.7 mph 52 % 0.0 in
18:22 25.4 °F 14.8 °F 1017.2 in West 4.8 mph 16.1 mph 52 % 0.0 in
18:27 25.6 °F 15.3 °F 1017.2 in SW 6.4 mph 16.1 mph 53 % 0.0 in
18:32 25.6 °F 15.0 °F 1017.2 in SSW 11.3 mph 16.1 mph 52 % 0.0 in
18:42 25.7 °F 15.4 °F 1017.2 in WSW 12.9 mph 17.7 mph 53 % 0.0 in
18:52 25.3 °F 15.0 °F 1017.2 in WSW 6.4 mph 17.7 mph 53 % 0.0 in
18:57 25.4 °F 15.7 °F 1017.2 in SSW 6.4 mph 17.7 mph 55 % 0.0 in
19:02 25.3 °F 15.6 °F 1017.2 in SW 9.7 mph 17.7 mph 55 % 0.0 in
19:07 25.2 °F 15.8 °F 1017.2 in SW 6.4 mph 19.3 mph 56 % 0.0 in
19:12 25.1 °F 15.7 °F 1017.2 in WSW 6.4 mph 19.3 mph 56 % 0.0 in
19:17 25.1 °F 15.7 °F 1017.2 in SSW 9.7 mph 19.3 mph 56 % 0.0 in
19:22 24.9 °F 15.5 °F 1017.2 in SW 9.7 mph 19.3 mph 56 % 0.0 in
19:27 24.9 °F 15.8 °F 1017.2 in SSW 6.4 mph 19.3 mph 57 % 0.0 in
19:32 24.9 °F 15.5 °F 1017.2 in SW 6.4 mph 19.3 mph 56 % 0.0 in
19:37 24.9 °F 15.5 °F 1017.2 in South 4.8 mph 12.9 mph 56 % 0.0 in
19:42 24.8 °F 15.7 °F 1017.2 in WSW 14.5 mph 14.5 mph 57 % 0.0 in
19:47 24.8 °F 15.7 °F 1017.2 in SW 4.8 mph 17.7 mph 57 % 0.0 in
19:52 24.8 °F 16.0 °F 1017.2 in West 12.9 mph 17.7 mph 58 % 0.0 in
20:02 24.6 °F 15.8 °F 1017.2 in West 4.8 mph 19.3 mph 58 % 0.0 in
20:12 24.5 °F 16.0 °F 1017.2 in West 3.2 mph 19.3 mph 59 % 0.0 in
20:22 24.3 °F 16.0 °F 1017.2 in SW 3.2 mph 12.9 mph 60 % 0.0 in
20:27 24.2 °F 16.2 °F 1017.2 in SW 1.6 mph 12.9 mph 61 % 0.0 in
20:32 24.1 °F 16.4 °F 1017.2 in WSW 6.4 mph 12.9 mph 62 % 0.0 in
20:37 24.2 °F 16.5 °F 1017.2 in WSW 6.4 mph 11.3 mph 62 % 0.0 in
20:42 24.1 °F 16.4 °F 1017.2 in WSW 3.2 mph 11.3 mph 62 % 0.0 in
20:47 23.9 °F 16.4 °F 1017.2 in SW 11.3 mph 11.3 mph 63 % 0.0 in
20:52 23.7 °F 16.5 °F 1017.2 in WSW 4.8 mph 11.3 mph 64 % 0.0 in
20:57 23.6 °F 16.4 °F 1017.2 in WSW 4.8 mph 12.9 mph 64 % 0.0 in
21:02 23.4 °F 16.4 °F 1017.2 in WSW 4.8 mph 12.9 mph 65 % 0.0 in
21:07 23.3 °F 16.3 °F 1017.2 in SW 4.8 mph 12.9 mph 65 % 0.0 in
21:12 23.3 °F 16.6 °F 1017.2 in WSW 3.2 mph 9.7 mph 66 % 0.0 in
21:17 23.2 °F 16.5 °F 1017.2 in SW 3.2 mph 9.7 mph 66 % 0.0 in
21:27 23.1 °F 16.4 °F 1017.2 in West 4.8 mph 9.7 mph 66 % 0.0 in
21:32 23.1 °F 16.6 °F 1017.2 in SW 4.8 mph 9.7 mph 67 % 0.0 in
21:37 23.0 °F 16.5 °F 1017.5 in WSW 3.2 mph 9.7 mph 67 % 0.0 in
21:42 22.9 °F 16.4 °F 1017.5 in SW 3.2 mph 6.4 mph 67 % 0.0 in
21:47 22.7 °F 16.5 °F 1017.5 in SW 4.8 mph 6.4 mph 68 % 0.0 in
21:52 22.7 °F 16.5 °F 1017.5 in SW 4.8 mph 9.7 mph 68 % 0.0 in
21:57 22.6 °F 16.4 °F 1017.5 in WSW 4.8 mph 9.7 mph 68 % 0.0 in
22:02 22.6 °F 16.6 °F 1017.8 in SW 3.2 mph 9.7 mph 69 % 0.0 in
22:07 22.5 °F 16.8 °F 1017.5 in SSW 1.6 mph 8.0 mph 70 % 0.0 in
22:12 22.4 °F 16.7 °F 1017.5 in WSW 3.2 mph 8.0 mph 70 % 0.0 in
22:17 22.4 °F 16.7 °F 1017.5 in SW 3.2 mph 8.0 mph 70 % 0.0 in
22:22 22.4 °F 16.9 °F 1017.5 in SW 4.8 mph 8.0 mph 71 % 0.0 in
22:27 22.4 °F 16.9 °F 1017.5 in WSW 4.8 mph 8.0 mph 71 % 0.0 in
22:32 22.4 °F 16.9 °F 1017.5 in WSW 3.2 mph 8.0 mph 71 % 0.0 in
22:37 22.4 °F 16.9 °F 1017.5 in West 3.2 mph 8.0 mph 71 % 0.0 in
22:42 22.3 °F 16.8 °F 1017.5 in SW 4.8 mph 8.0 mph 71 % 0.0 in
22:47 22.3 °F 17.0 °F 1017.5 in WSW 4.8 mph 6.4 mph 72 % 0.0 in
22:57 22.2 °F 17.3 °F 1017.5 in Calm   6.4 mph 74 % 0.0 in
23:02 21.9 °F 17.1 °F 1017.5 in SSW 3.2 mph 4.8 mph 74 % 0.0 in
23:07 21.8 °F 17.0 °F 1017.5 in SSW 1.6 mph 4.8 mph 74 % 0.0 in
23:12 21.7 °F 16.9 °F 1017.5 in SSW 1.6 mph 3.2 mph 74 % 0.0 in
23:17 21.7 °F 17.1 °F 1017.5 in Calm   3.2 mph 75 % 0.0 in
23:22 21.7 °F 17.1 °F 1017.5 in SSW 1.6 mph 3.2 mph 75 % 0.0 in
23:27 21.6 °F 17.2 °F 1017.5 in Calm   3.2 mph 76 % 0.0 in
23:32 21.6 °F 17.2 °F 1017.5 in Calm   3.2 mph 76 % 0.0 in
23:37 21.5 °F 17.3 °F 1017.5 in SSW 1.6 mph 3.2 mph 77 % 0.0 in
23:42 21.4 °F 17.4 °F 1017.5 in Calm   3.2 mph 78 % 0.0 in
23:47 21.3 °F 17.3 °F 1017.5 in Calm   3.2 mph 78 % 0.0 in
23:52 21.3 °F 17.3 °F 1017.5 in Calm   3.2 mph 78 % 0.0 in
23:57 21.2 °F 17.2 °F 1017.2 in ESE 1.6 mph 1.6 mph 78 % 0.0 in
Meteo18
Compliments of Weather Underground - 4 mb

Script developed by  Jim McMurry - jmcmurry@mwt.net Adapted for the template by  Wim van der Kuil - Leuven-Template.eu

You find our weather info also at:

European Weather Network

Weather Underground

Equipment we use:

Weather-station
Davis Vue

Weather-program
Meteobridge

Weather-server
Raspberry PI 2 B+

Provider
1 and 1

Davis Vue

Meteobridge

Raspberry PI 2 B+

1 and 1